Time;durP1;ratioP1;P1;durP2;ratioP2;P2;SDS_P1;SDS_P2;PMS_P1;PMS_P2;Temp;Humidity;BMP_temperature;BMP_pressure;BME280_temperature;BME280_humidity;BME280_pressure;Samples;Min_cycle;Max_cycle;Signal;HPM_P1;HPM_P2
2022/10/08 00:00:46;;;;;;;9.93;2.72;;;10.20;87.10;;;;;;5021733;28;20085;-81
2022/10/08 00:03:13;;;;;;;10.50;2.70;;;10.30;87.40;;;;;;5025131;28;20021;-81
2022/10/08 00:05:38;;;;;;;12.32;2.67;;;10.30;87.10;;;;;;5028580;28;20037;-82
2022/10/08 00:08:05;;;;;;;10.15;2.42;;;10.20;87.30;;;;;;5016536;28;20095;-81
2022/10/08 00:10:31;;;;;;;9.98;1.75;;;10.10;87.50;;;;;;5019530;28;20036;-82
2022/10/08 00:12:58;;;;;;;12.25;2.47;;;10.10;87.40;;;;;;5034563;28;20025;-81
2022/10/08 00:15:24;;;;;;;8.80;2.75;;;10.10;87.70;;;;;;5029104;28;20033;-81
2022/10/08 00:17:50;;;;;;;9.50;2.58;;;10.10;87.70;;;;;;5050617;28;20033;-82
2022/10/08 00:20:16;;;;;;;12.00;2.55;;;10.10;87.70;;;;;;5031126;28;20033;-80
2022/10/08 00:22:41;;;;;;;13.90;2.67;;;10.00;87.70;;;;;;5024327;28;20033;-83
2022/10/08 00:25:08;;;;;;;7.10;2.78;;;10.00;87.80;;;;;;5040929;28;20502;-82
2022/10/08 00:27:34;;;;;;;11.15;2.42;;;10.10;87.90;;;;;;5034057;28;20022;-81
2022/10/08 00:30:00;;;;;;;11.05;2.53;;;10.00;87.80;;;;;;5026409;28;20113;-81
2022/10/08 00:32:25;;;;;;;10.98;2.38;;;9.90;88.30;;;;;;5051037;28;20082;-81
2022/10/08 00:34:51;;;;;;;10.50;2.25;;;9.80;88.30;;;;;;5037736;28;20044;-81
2022/10/08 00:37:16;;;;;;;11.68;2.90;;;10.00;88.20;;;;;;5023771;28;20113;-81
2022/10/08 00:39:42;;;;;;;14.15;3.47;;;9.90;88.10;;;;;;5032267;28;20033;-82
2022/10/08 00:42:10;;;;;;;21.15;2.83;;;9.90;88.20;;;;;;5017321;28;20033;-81
2022/10/08 00:44:56;;;;;;;8.88;2.03;;;9.90;88.30;;;;;;5016244;28;20053;-81
2022/10/08 00:47:33;;;;;;;12.20;2.65;;;9.80;88.50;;;;;;5022679;28;20096;-81
2022/10/08 00:50:03;;;;;;;13.07;2.25;;;9.90;88.70;;;;;;5012038;28;20032;-83
2022/10/08 00:52:33;;;;;;;8.98;1.90;;;9.90;88.70;;;;;;5020827;28;20041;-81
2022/10/08 00:55:00;;;;;;;15.38;2.78;;;9.80;88.50;;;;;;5015660;28;20049;-83
2022/10/08 00:57:26;;;;;;;13.65;3.20;;;9.80;88.70;;;;;;5014648;28;20439;-81
2022/10/08 00:59:51;;;;;;;11.18;2.75;;;9.80;88.60;;;;;;5041635;28;20033;-81
2022/10/08 01:02:18;;;;;;;13.25;2.50;;;9.80;88.70;;;;;;5018687;28;20117;-81
2022/10/08 01:04:44;;;;;;;9.43;2.45;;;9.70;88.90;;;;;;5003176;28;20073;-81
2022/10/08 01:07:10;;;;;;;16.75;3.47;;;9.80;88.90;;;;;;5044599;28;20033;-82
2022/10/08 01:09:50;;;;;;;13.90;2.88;;;9.80;88.90;;;;;;5014904;28;20087;-82
2022/10/08 01:12:52;;;;;;;16.00;2.83;;;9.80;89.00;;;;;;5021253;28;20564;-81
2022/10/08 01:15:28;;;;;;;13.45;2.60;;;9.80;89.10;;;;;;4956101;28;20389;-81
2022/10/08 01:18:20;;;;;;;14.52;2.55;;;9.80;89.00;;;;;;5022995;28;20436;-82
2022/10/08 01:20:58;;;;;;;11.75;2.70;;;9.90;89.10;;;;;;5012005;28;20021;-81
2022/10/08 01:23:29;;;;;;;12.40;2.85;;;9.90;89.00;;;;;;5021169;28;20404;-81
2022/10/08 01:26:15;;;;;;;17.65;2.70;;;9.90;89.10;;;;;;5013476;28;20032;-82
2022/10/08 01:28:55;;;;;;;12.02;2.55;;;9.90;89.00;;;;;;5023335;28;20029;-81
2022/10/08 01:31:36;;;;;;;10.40;2.60;;;9.90;89.00;;;;;;5019113;28;20047;-80
2022/10/08 01:34:35;;;;;;;13.35;3.55;;;10.00;88.80;;;;;;5022044;28;20116;-83
2022/10/08 01:37:03;;;;;;;12.43;2.40;;;9.90;89.00;;;;;;5016183;28;20045;-81
2022/10/08 01:39:31;;;;;;;12.35;2.50;;;9.90;88.70;;;;;;5030546;28;20021;-82
2022/10/08 01:42:00;;;;;;;12.48;2.75;;;10.00;88.80;;;;;;5039507;28;20033;-81
2022/10/08 01:44:32;;;;;;;11.05;2.35;;;9.90;88.80;;;;;;5029553;28;20414;-81
2022/10/08 01:47:02;;;;;;;11.05;2.35;;;10.00;88.60;;;;;;5022282;28;20124;-82
2022/10/08 01:49:33;;;;;;;11.25;2.42;;;9.90;88.80;;;;;;5025237;28;20022;-80
2022/10/08 01:52:10;;;;;;;6.75;2.13;;;9.90;89.00;;;;;;5046408;28;20017;-81
2022/10/08 01:54:38;;;;;;;9.23;2.63;;;9.90;88.80;;;;;;5033958;28;20022;-82
2022/10/08 01:57:05;;;;;;;12.63;2.90;;;9.80;89.00;;;;;;5011502;28;20033;-83
2022/10/08 01:59:46;;;;;;;9.77;2.83;;;9.80;89.10;;;;;;5024349;28;20033;-80
2022/10/08 02:02:22;;;;;;;;;;;9.90;89.00;;;;;;5038122;28;20025;-81
2022/10/08 02:04:52;;;;;;;11.40;3.05;;;9.90;88.90;;;;;;5043342;28;19928;-81
2022/10/08 02:07:21;;;;;;;11.02;2.35;;;9.80;89.10;;;;;;5034324;28;20052;-82
2022/10/08 02:09:51;;;;;;;14.45;2.53;;;9.80;89.10;;;;;;5020451;28;20036;-85
2022/10/08 02:12:17;;;;;;;9.80;2.63;;;9.80;89.40;;;;;;5022105;28;20124;-86
2022/10/08 02:14:47;;;;;;;10.80;2.42;;;9.80;89.30;;;;;;5025392;28;20072;-87
2022/10/08 02:17:19;;;;;;;14.30;3.25;;;9.90;89.40;;;;;;5016517;28;20017;-85
2022/10/08 02:19:59;;;;;;;10.70;2.97;;;10.00;89.30;;;;;;5036441;28;20083;-86
2022/10/08 02:22:39;;;;;;;12.80;2.38;;;10.00;89.20;;;;;;5032552;28;20422;-86
2022/10/08 02:25:20;;;;;;;8.90;2.50;;;10.10;88.70;;;;;;5030196;28;20022;-85
2022/10/08 02:28:04;;;;;;;9.43;2.40;;;10.10;88.60;;;;;;5005153;28;20029;-86
2022/10/08 02:30:45;;;;;;;13.02;2.63;;;10.10;88.60;;;;;;5028101;28;20388;-85
2022/10/08 02:33:14;;;;;;;;;;;10.10;88.70;;;;;;5019414;28;20449;-85
2022/10/08 02:35:50;;;;;;;11.20;2.63;;;10.10;88.70;;;;;;5015677;28;19917;-86
2022/10/08 02:38:31;;;;;;;9.43;2.08;;;10.00;88.70;;;;;;5015232;28;20026;-86
2022/10/08 02:41:01;;;;;;;15.15;2.55;;;10.10;88.80;;;;;;5010867;28;20071;-86
2022/10/08 02:43:30;;;;;;;9.10;2.72;;;10.10;88.90;;;;;;5014908;28;20136;-85
2022/10/08 02:46:03;;;;;;;11.85;2.95;;;10.10;88.80;;;;;;5016214;28;20044;-86
2022/10/08 02:48:31;;;;;;;13.73;3.08;;;10.20;88.70;;;;;;5017184;28;20033;-85
2022/10/08 02:51:01;;;;;;;16.50;3.28;;;10.20;88.60;;;;;;5020364;28;20034;-85
2022/10/08 02:53:28;;;;;;;11.57;2.45;;;10.30;88.50;;;;;;5020792;28;20065;-85
2022/10/08 02:56:20;;;;;;;12.45;2.42;;;10.30;88.40;;;;;;5013242;28;20471;-85
2022/10/08 02:58:46;;;;;;;11.13;2.50;;;10.40;88.30;;;;;;5011487;28;20052;-87
2022/10/08 03:01:39;;;;;;;13.40;3.00;;;10.40;88.30;;;;;;5029036;28;20091;-85
2022/10/08 03:04:37;;;;;;;10.63;2.55;;;10.40;88.50;;;;;;5018339;28;20517;-86
2022/10/08 03:07:04;;;;;;;13.80;2.95;;;10.50;88.30;;;;;;5037579;28;20503;-86
2022/10/08 03:09:39;;;;;;;14.68;2.60;;;10.50;88.30;;;;;;5034300;28;20029;-86
2022/10/08 03:12:06;;;;;;;12.95;2.65;;;10.50;88.30;;;;;;5026846;28;20022;-86
2022/10/08 03:14:38;;;;;;;16.75;2.72;;;10.50;88.30;;;;;;5041437;28;20029;-86
2022/10/08 03:17:06;;;;;;;14.93;2.92;;;10.50;88.20;;;;;;5035451;28;20484;-85
2022/10/08 03:19:33;;;;;;;10.65;2.80;;;10.60;88.20;;;;;;5039835;28;20029;-85
2022/10/08 03:22:00;;;;;;;11.25;2.50;;;10.60;88.20;;;;;;5045136;28;20052;-86
2022/10/08 03:24:25;;;;;;;7.55;2.75;;;10.50;88.30;;;;;;5034707;28;20025;-87
2022/10/08 03:26:52;;;;;;;11.10;3.03;;;10.60;88.30;;;;;;5048994;28;20091;-89
2022/10/08 03:29:17;;;;;;;17.45;2.92;;;10.50;88.50;;;;;;5026856;28;20063;-88
2022/10/08 03:31:43;;;;;;;9.80;2.78;;;10.60;88.50;;;;;;5041250;28;20312;-88
2022/10/08 03:34:09;;;;;;;13.40;2.58;;;10.50;88.50;;;;;;5034523;28;20456;-86
2022/10/08 03:36:34;;;;;;;11.88;2.70;;;10.60;88.50;;;;;;5024768;28;20026;-87
2022/10/08 03:39:00;;;;;;;12.60;2.42;;;10.60;88.50;;;;;;5032344;28;20030;-86
2022/10/08 03:41:25;;;;;;;15.48;2.83;;;10.60;88.60;;;;;;5030380;28;20033;-86
2022/10/08 03:43:51;;;;;;;12.27;2.72;;;10.60;88.70;;;;;;5032718;28;20072;-87
2022/10/08 03:46:16;;;;;;;13.20;2.58;;;10.60;88.70;;;;;;5039048;28;20105;-87
2022/10/08 03:48:42;;;;;;;12.70;3.00;;;10.60;88.80;;;;;;5047367;28;20036;-86
2022/10/08 03:51:12;;;;;;;8.05;2.47;;;10.60;88.80;;;;;;5045903;28;20056;-86
2022/10/08 03:53:39;;;;;;;13.80;2.58;;;10.60;88.80;;;;;;5021509;28;20480;-84
2022/10/08 03:56:07;;;;;;;11.80;2.83;;;10.60;88.90;;;;;;5016956;28;20116;-87
2022/10/08 03:58:33;;;;;;;8.98;2.22;;;10.60;88.90;;;;;;5039251;28;20021;-86
2022/10/08 04:01:12;;;;;;;11.63;2.72;;;10.60;88.90;;;;;;5026165;28;20033;-86
2022/10/08 04:03:38;;;;;;;14.82;2.67;;;10.60;88.90;;;;;;5040826;28;20090;-85
2022/10/08 04:06:04;;;;;;;9.23;2.58;;;10.60;89.00;;;;;;5037272;28;20288;-88
2022/10/08 04:08:29;;;;;;;13.32;2.85;;;10.60;89.10;;;;;;5024431;28;20526;-88
2022/10/08 04:10:55;;;;;;;12.43;2.80;;;10.60;89.00;;;;;;5033740;28;20034;-88
2022/10/08 04:13:21;;;;;;;9.40;2.70;;;10.60;89.10;;;;;;5043830;28;20064;-87
2022/10/08 04:15:49;;;;;;;14.88;2.33;;;10.60;89.20;;;;;;5034950;28;20029;-86
2022/10/08 04:18:15;;;;;;;11.73;2.72;;;10.60;89.20;;;;;;5049208;28;20009;-86
2022/10/08 04:20:44;;;;;;;10.05;3.05;;;10.60;89.30;;;;;;5043253;28;20041;-86
2022/10/08 04:23:10;;;;;;;8.98;2.35;;;10.60;89.20;;;;;;5031154;28;20056;-86
2022/10/08 04:25:36;;;;;;;15.57;2.53;;;10.60;89.30;;;;;;5032405;28;20033;-87
2022/10/08 04:28:02;;;;;;;10.48;2.67;;;10.60;89.40;;;;;;5029592;28;20033;-87
2022/10/08 04:30:29;;;;;;;7.60;2.65;;;10.60;89.50;;;;;;5073722;23;20060;-67
2022/10/08 04:32:55;;;;;;;13.13;2.80;;;10.60;89.60;;;;;;5069278;28;20024;-67
2022/10/08 04:35:20;;;;;;;12.13;2.85;;;10.60;89.70;;;;;;5061570;28;20044;-66
2022/10/08 04:37:45;;;;;;;6.63;2.45;;;10.60;89.60;;;;;;5069556;28;20398;-67
2022/10/08 04:40:11;;;;;;;12.50;2.90;;;10.60;89.80;;;;;;5056791;28;20129;-67
2022/10/08 04:42:36;;;;;;;9.10;2.42;;;10.50;89.90;;;;;;5061357;28;20544;-67
2022/10/08 04:45:02;;;;;;;9.63;2.45;;;10.60;90.00;;;;;;5061541;28;20150;-67
2022/10/08 04:47:27;;;;;;;9.55;2.53;;;10.50;90.10;;;;;;5063025;28;20048;-67
2022/10/08 04:49:53;;;;;;;10.65;2.78;;;10.50;90.10;;;;;;5061026;28;20197;-67
2022/10/08 04:52:19;;;;;;;10.27;2.42;;;10.50;90.30;;;;;;5065477;28;20067;-67
2022/10/08 04:54:45;;;;;;;12.13;3.13;;;10.50;90.40;;;;;;5065561;28;20039;-68
2022/10/08 04:57:10;;;;;;;11.90;2.80;;;10.50;90.40;;;;;;5062381;28;20433;-68
2022/10/08 04:59:35;;;;;;;13.48;2.50;;;10.50;90.60;;;;;;5055756;28;20032;-67
2022/10/08 05:02:01;;;;;;;14.30;2.85;;;10.50;90.70;;;;;;5057733;28;20040;-67
2022/10/08 05:04:26;;;;;;;13.57;3.00;;;10.40;90.80;;;;;;5068933;28;20419;-68
2022/10/08 05:06:52;;;;;;;12.75;3.53;;;10.50;90.90;;;;;;5067142;28;20156;-68
2022/10/08 05:09:17;;;;;;;13.05;3.05;;;10.50;90.90;;;;;;5036706;28;20125;-68
2022/10/08 05:11:43;;;;;;;10.57;2.67;;;10.50;90.90;;;;;;5033204;28;20496;-67
2022/10/08 05:14:09;;;;;;;13.00;2.72;;;10.50;91.00;;;;;;5046600;28;20449;-68
2022/10/08 05:16:35;;;;;;;17.17;3.10;;;10.50;91.00;;;;;;5047123;28;20041;-69
2022/10/08 05:19:00;;;;;;;11.60;2.80;;;10.50;91.10;;;;;;5045059;28;20163;-67
2022/10/08 05:21:28;;;;;;;13.93;2.92;;;10.50;91.20;;;;;;5043694;28;20422;-67
2022/10/08 05:23:55;;;;;;;9.55;2.67;;;10.50;91.20;;;;;;5038875;28;20082;-67
2022/10/08 05:26:24;;;;;;;9.43;2.50;;;10.50;91.20;;;;;;5045770;28;20073;-67
2022/10/08 05:28:54;;;;;;;11.13;3.25;;;10.50;91.30;;;;;;5043485;28;20033;-68
2022/10/08 05:31:19;;;;;;;16.50;2.85;;;10.50;91.40;;;;;;5046805;28;20384;-67
2022/10/08 05:33:45;;;;;;;12.18;3.00;;;10.50;91.50;;;;;;5042707;28;20052;-67
2022/10/08 05:36:28;;;;;;;8.27;2.67;;;10.50;91.60;;;;;;5045699;28;20041;-67
2022/10/08 05:38:55;;;;;;;4.50;2.13;;;10.50;91.60;;;;;;5042727;28;20048;-67
2022/10/08 05:41:24;;;;;;;12.52;3.30;;;10.60;91.70;;;;;;5044873;28;20182;-67
2022/10/08 05:43:52;;;;;;;10.88;2.80;;;10.50;91.60;;;;;;5040396;28;20033;-68
2022/10/08 05:46:18;;;;;;;9.93;2.53;;;10.50;91.70;;;;;;5043439;28;20461;-66
2022/10/08 05:48:44;;;;;;;11.75;2.53;;;10.60;91.80;;;;;;5041374;28;20037;-66
2022/10/08 05:51:15;;;;;;;11.30;2.88;;;10.50;91.80;;;;;;5042241;28;20033;-66
2022/10/08 05:53:43;;;;;;;10.50;3.15;;;10.50;91.90;;;;;;5038957;28;20117;-68
2022/10/08 05:56:11;;;;;;;12.80;2.55;;;10.50;92.00;;;;;;5045151;28;20036;-66
2022/10/08 05:58:38;;;;;;;11.48;2.85;;;10.50;92.10;;;;;;5044824;28;20033;-66
2022/10/08 06:01:11;;;;;;;8.05;2.38;;;10.50;92.20;;;;;;5042281;28;20213;-66
2022/10/08 06:03:37;;;;;;;13.50;2.63;;;10.60;92.30;;;;;;5043262;28;20037;-67
2022/10/08 06:06:04;;;;;;;10.63;2.75;;;10.60;92.20;;;;;;5045669;28;20439;-66
2022/10/08 06:08:31;;;;;;;10.35;3.22;;;10.70;92.10;;;;;;5042758;28;20523;-66
2022/10/08 06:10:57;;;;;;;9.23;2.53;;;10.70;92.10;;;;;;5041075;28;20052;-68
2022/10/08 06:13:23;;;;;;;15.13;2.75;;;10.70;92.20;;;;;;5037246;28;20036;-67
2022/10/08 06:15:59;;;;;;;8.48;2.08;;;10.80;92.30;;;;;;5044699;28;20040;-67
2022/10/08 06:18:27;;;;;;;7.03;2.65;;;10.70;92.20;;;;;;5045848;28;20064;-70
2022/10/08 06:20:53;;;;;;;10.15;2.85;;;10.80;92.30;;;;;;5043739;28;20432;-68
2022/10/08 06:23:19;;;;;;;13.40;2.95;;;10.80;92.30;;;;;;5037352;28;20082;-68
2022/10/08 06:25:45;;;;;;;10.82;2.63;;;10.80;92.30;;;;;;5041402;28;20045;-69
2022/10/08 06:28:10;;;;;;;11.90;2.70;;;10.80;92.30;;;;;;5049996;28;20113;-69
2022/10/08 06:30:38;;;;;;;9.88;3.05;;;10.80;92.40;;;;;;5042312;28;20061;-69
2022/10/08 06:33:04;;;;;;;9.07;2.38;;;10.80;92.50;;;;;;5037248;28;20049;-69
2022/10/08 06:35:29;;;;;;;8.20;2.28;;;10.70;92.50;;;;;;5033336;28;20129;-68
2022/10/08 06:37:55;;;;;;;10.90;3.00;;;10.70;92.80;;;;;;5048896;28;20047;-68
2022/10/08 06:40:20;;;;;;;8.10;2.60;;;10.70;92.90;;;;;;5042665;28;20556;-68
2022/10/08 06:42:46;;;;;;;10.02;2.35;;;10.60;93.00;;;;;;5043782;28;20104;-68
2022/10/08 06:45:11;;;;;;;10.88;2.67;;;10.60;93.10;;;;;;5045873;28;20033;-68
2022/10/08 06:47:37;;;;;;;12.70;3.17;;;10.50;93.30;;;;;;5059963;28;20073;-68
2022/10/08 06:50:03;;;;;;;12.15;2.63;;;10.50;93.40;;;;;;5046069;28;20437;-70
2022/10/08 06:52:28;;;;;;;12.15;3.08;;;10.50;93.50;;;;;;5047447;28;20052;-68
2022/10/08 06:54:54;;;;;;;12.55;3.33;;;10.40;93.70;;;;;;5037906;28;20029;-68
2022/10/08 06:57:19;;;;;;;12.45;3.42;;;10.40;93.90;;;;;;5054796;28;20484;-68
2022/10/08 06:59:45;;;;;;;13.20;3.20;;;10.40;94.00;;;;;;5041452;28;20033;-68
2022/10/08 07:02:10;;;;;;;8.80;3.15;;;10.30;94.20;;;;;;5046147;28;20086;-69
2022/10/08 07:04:36;;;;;;;11.95;2.95;;;10.30;94.20;;;;;;5047542;28;20073;-68
2022/10/08 07:07:02;;;;;;;17.75;3.67;;;10.40;94.50;;;;;;5035985;28;20385;-69
2022/10/08 07:09:27;;;;;;;14.68;3.15;;;10.50;94.60;;;;;;5032732;28;20049;-68
2022/10/08 07:11:53;;;;;;;11.82;3.47;;;10.50;94.50;;;;;;5043107;28;20036;-68
2022/10/08 07:14:18;;;;;;;8.15;3.28;;;10.50;94.60;;;;;;5045383;28;20060;-69
2022/10/08 07:16:44;;;;;;;10.70;3.33;;;10.60;94.50;;;;;;5047776;28;20202;-69
2022/10/08 07:19:09;;;;;;;12.02;3.95;;;10.70;94.50;;;;;;5048112;28;20453;-69
2022/10/08 07:21:35;;;;;;;9.90;3.50;;;10.80;94.40;;;;;;5047339;28;20041;-68
2022/10/08 07:24:00;;;;;;;12.05;3.75;;;11.00;94.20;;;;;;5047655;28;20059;-69
2022/10/08 07:26:29;;;;;;;15.82;3.63;;;11.10;94.10;;;;;;5042732;28;20440;-69
2022/10/08 07:29:16;;;;;;;12.93;3.67;;;11.10;94.00;;;;;;5038090;28;20057;-68
2022/10/08 07:31:42;;;;;;;11.82;3.35;;;11.30;93.80;;;;;;5045002;28;20109;-70
2022/10/08 07:34:11;;;;;;;13.05;3.40;;;11.40;93.50;;;;;;5043764;28;20076;-68
2022/10/08 07:36:37;;;;;;;20.95;4.13;;;11.50;93.20;;;;;;5047882;28;20168;-68
2022/10/08 07:39:05;;;;;;;12.20;3.60;;;11.60;93.20;;;;;;5042189;28;20083;-68
2022/10/08 07:41:31;;;;;;;10.85;3.83;;;11.60;92.80;;;;;;5043030;28;20039;-69
2022/10/08 07:43:59;;;;;;;10.85;3.90;;;11.70;92.50;;;;;;5045701;28;20425;-69
2022/10/08 07:46:29;;;;;;;13.88;3.40;;;11.90;92.30;;;;;;5044040;28;20032;-68
2022/10/08 07:48:57;;;;;;;12.52;3.67;;;12.00;91.80;;;;;;5042064;28;20101;-68
2022/10/08 07:51:23;;;;;;;8.93;3.22;;;12.10;91.60;;;;;;5040809;28;20033;-68
2022/10/08 07:53:49;;;;;;;13.55;4.25;;;12.10;91.10;;;;;;5039831;28;20380;-68
2022/10/08 07:56:16;;;;;;;8.77;3.10;;;12.30;90.60;;;;;;5044946;28;20040;-67
2022/10/08 07:58:42;;;;;;;11.45;3.40;;;12.30;90.20;;;;;;5046928;28;20068;-68
2022/10/08 08:01:12;;;;;;;10.00;3.22;;;12.40;90.50;;;;;;5043606;28;20064;-69
2022/10/08 08:03:38;;;;;;;10.30;3.08;;;12.40;89.90;;;;;;5050009;28;20059;-69
2022/10/08 08:06:09;;;;;;;9.10;3.30;;;12.50;90.10;;;;;;5043972;28;20041;-68
2022/10/08 08:08:35;;;;;;;;;;;12.50;90.00;;;;;;5041878;28;20037;-68
2022/10/08 08:11:03;;;;;;;8.02;3.35;;;12.60;89.50;;;;;;5030615;28;20326;-68
2022/10/08 08:13:30;;;;;;;12.23;3.63;;;12.90;89.20;;;;;;5040998;28;20115;-69
2022/10/08 08:16:00;;;;;;;8.25;3.20;;;13.00;88.30;;;;;;5050204;28;20321;-68
2022/10/08 08:18:30;;;;;;;13.82;3.78;;;12.90;88.40;;;;;;5046284;28;20422;-69
2022/10/08 08:21:01;;;;;;;12.35;3.83;;;12.90;88.30;;;;;;5049434;28;20111;-68
2022/10/08 08:23:35;;;;;;;12.60;3.15;;;13.00;88.10;;;;;;5035840;28;20488;-68
2022/10/08 08:26:01;;;;;;;9.85;3.45;;;13.10;88.20;;;;;;5042100;28;20033;-68
2022/10/08 08:28:27;;;;;;;9.73;3.28;;;13.20;88.20;;;;;;5033125;28;20030;-68
2022/10/08 08:30:53;;;;;;;9.73;3.90;;;13.40;87.10;;;;;;5029651;28;20416;-68
2022/10/08 08:33:19;;;;;;;12.02;3.50;;;13.30;87.00;;;;;;5031358;28;20029;-65
2022/10/08 08:35:52;;;;;;;10.50;3.05;;;13.30;87.00;;;;;;5042353;28;20438;-65
2022/10/08 08:38:18;;;;;;;10.80;3.72;;;13.50;86.20;;;;;;5029140;28;20044;-66
2022/10/08 08:40:43;;;;;;;10.38;3.05;;;13.70;86.20;;;;;;5030400;28;20037;-66
2022/10/08 08:43:09;;;;;;;7.60;2.75;;;13.60;85.80;;;;;;5045007;28;20096;-65
2022/10/08 08:45:36;;;;;;;9.70;2.80;;;13.80;85.00;;;;;;5047020;28;20510;-66
2022/10/08 08:48:11;;;;;;;8.13;2.92;;;13.50;85.30;;;;;;5048833;28;20523;-65
2022/10/08 08:50:40;;;;;;;9.65;2.80;;;13.70;85.70;;;;;;5048622;28;20135;-65
2022/10/08 08:53:08;;;;;;;10.85;3.00;;;13.60;85.70;;;;;;5035986;28;20119;-66
2022/10/08 08:55:39;;;;;;;7.53;2.47;;;13.80;85.30;;;;;;5032463;28;20115;-65
2022/10/08 08:58:13;;;;;;;11.98;2.92;;;14.00;84.60;;;;;;5041067;28;20115;-67
2022/10/08 09:00:41;;;;;;;8.23;2.35;;;14.00;84.50;;;;;;5040100;28;20384;-65
2022/10/08 09:03:15;;;;;;;12.50;2.58;;;14.20;84.00;;;;;;5038432;28;20055;-67
2022/10/08 09:05:44;;;;;;;10.00;2.38;;;14.20;83.60;;;;;;5045442;28;20036;-69
2022/10/08 09:08:29;;;;;;;12.38;2.10;;;14.10;83.70;;;;;;5036080;28;20061;-68
2022/10/08 09:11:03;;;;;;;9.43;1.88;;;14.00;84.00;;;;;;5044451;28;20071;-68
2022/10/08 09:13:34;;;;;;;9.80;2.25;;;13.80;84.10;;;;;;5047739;28;20043;-65
2022/10/08 09:16:00;;;;;;;13.98;2.38;;;14.20;84.00;;;;;;5048449;28;20056;-65
2022/10/08 09:18:26;;;;;;;8.20;2.00;;;14.50;83.40;;;;;;5042566;28;20381;-66
2022/10/08 09:20:51;;;;;;;8.07;1.98;;;14.50;81.70;;;;;;5048118;28;20041;-65
2022/10/08 09:23:22;;;;;;;9.00;1.52;;;14.30;81.90;;;;;;5048117;28;20100;-67
2022/10/08 09:25:59;;;;;;;9.43;2.50;;;14.10;81.60;;;;;;5045360;28;20149;-66
2022/10/08 09:28:40;;;;;;;7.93;1.73;;;14.00;81.50;;;;;;5036878;28;20085;-68
2022/10/08 09:31:29;;;;;;;10.02;2.30;;;14.00;82.00;;;;;;5032374;28;20136;-67
2022/10/08 09:34:09;;;;;;;6.95;1.55;;;14.50;80.90;;;;;;5036320;28;20029;-65
2022/10/08 09:36:36;;;;;;;7.07;1.48;;;15.20;78.20;;;;;;5040272;28;20025;-65
2022/10/08 09:39:06;;;;;;;10.40;2.22;;;15.30;76.80;;;;;;5030307;28;20057;-66
2022/10/08 09:41:31;;;;;;;4.75;1.25;;;15.70;74.10;;;;;;5036237;28;20140;-66
2022/10/08 09:44:19;;;;;;;8.90;1.70;;;16.00;74.20;;;;;;5043376;28;20522;-66
2022/10/08 09:46:45;;;;;;;10.85;1.42;;;15.50;74.80;;;;;;5036257;28;20037;-66
2022/10/08 09:49:30;;;;;;;8.18;1.63;;;15.10;74.90;;;;;;5037497;28;20334;-66
2022/10/08 09:52:18;;;;;;;11.02;1.30;;;14.60;75.90;;;;;;5038903;28;20446;-66
2022/10/08 09:54:50;;;;;;;8.63;1.67;;;14.40;76.20;;;;;;5043186;28;20339;-68
2022/10/08 09:57:18;;;;;;;8.15;1.40;;;14.20;77.70;;;;;;5038395;28;20063;-66
2022/10/08 09:59:56;;;;;;;5.43;1.27;;;13.90;78.10;;;;;;5040303;28;20112;-67
2022/10/08 10:02:34;;;;;;;6.13;1.40;;;13.80;78.90;;;;;;5040856;28;20033;-66
2022/10/08 10:05:02;;;;;;;5.80;1.08;;;13.90;79.00;;;;;;5038964;28;20017;-69
2022/10/08 10:07:43;;;;;;;8.13;1.33;;;13.90;79.10;;;;;;5044600;28;20094;-66
2022/10/08 10:10:13;;;;;;;4.90;0.80;;;13.90;78.00;;;;;;5037769;28;20048;-66
2022/10/08 10:12:42;;;;;;;2.10;0.55;;;12.80;81.40;;;;;;5043938;28;20128;-66
2022/10/08 10:15:14;;;;;;;2.10;0.57;;;12.00;83.40;;;;;;5042216;28;20029;-66
2022/10/08 10:17:54;;;;;;;3.38;0.45;;;11.80;84.90;;;;;;5048156;28;20417;-66
2022/10/08 10:20:22;;;;;;;2.83;0.40;;;12.00;85.20;;;;;;5045071;28;20307;-66
2022/10/08 10:22:58;;;;;;;3.45;1.00;;;12.30;84.60;;;;;;5040503;28;20036;-66
2022/10/08 10:25:33;;;;;;;3.75;0.70;;;12.70;84.70;;;;;;5035600;28;20068;-67
2022/10/08 10:28:26;;;;;;;3.17;0.55;;;12.70;84.20;;;;;;5042950;28;20144;-67
2022/10/08 10:31:04;;;;;;;3.20;0.90;;;12.60;83.20;;;;;;5040979;28;20049;-66
2022/10/08 10:33:32;;;;;;;3.95;1.10;;;12.60;85.50;;;;;;5043822;28;20037;-67
2022/10/08 10:36:03;;;;;;;3.83;0.90;;;12.40;86.90;;;;;;5046108;28;20792;-66
2022/10/08 10:38:31;;;;;;;6.55;0.80;;;12.00;88.00;;;;;;5046337;28;20456;-66
2022/10/08 10:41:18;;;;;;;5.38;1.40;;;11.60;89.50;;;;;;5037812;28;20490;-66
2022/10/08 10:44:09;;;;;;;6.88;0.90;;;11.40;90.20;;;;;;5038506;28;20029;-66
2022/10/08 10:46:51;;;;;;;2.05;0.60;;;11.30;90.80;;;;;;5040680;28;20563;-67
2022/10/08 10:49:20;;;;;;;4.30;0.80;;;11.40;90.90;;;;;;5040590;28;20118;-66
2022/10/08 10:52:23;;;;;;;7.22;1.38;;;11.40;90.70;;;;;;5048255;28;20029;-67
2022/10/08 10:55:05;;;;;;;6.88;1.08;;;11.40;91.00;;;;;;5041309;28;20036;-69
2022/10/08 10:57:58;;;;;;;9.60;1.42;;;11.40;90.20;;;;;;5046677;28;20025;-67
2022/10/08 11:00:39;;;;;;;6.53;1.20;;;11.60;90.40;;;;;;5042678;28;20045;-67
2022/10/08 11:03:35;;;;;;;8.10;1.30;;;11.90;89.80;;;;;;5044054;28;20468;-66
2022/10/08 11:06:29;;;;;;;9.55;1.05;;;12.60;89.30;;;;;;5042380;28;20124;-67
2022/10/08 11:09:23;;;;;;;6.25;1.52;;;12.70;88.20;;;;;;5042175;28;20039;-67
2022/10/08 11:12:00;;;;;;;9.98;1.63;;;12.90;88.30;;;;;;5043971;28;20037;-67
2022/10/08 11:14:51;;;;;;;4.15;1.10;;;13.00;87.50;;;;;;5040761;28;20028;-67
2022/10/08 11:18:08;;;;;;;5.97;0.98;;;13.00;87.10;;;;;;5043855;28;20029;-67
2022/10/08 11:20:58;;;;;;;5.00;1.40;;;13.00;87.00;;;;;;5043250;28;20037;-67
2022/10/08 11:23:58;;;;;;;8.25;1.48;;;12.90;87.70;;;;;;5041603;28;20024;-68
2022/10/08 11:26:30;;;;;;;4.22;1.20;;;13.50;87.40;;;;;;5033254;28;20025;-69
2022/10/08 11:29:10;;;;;;;4.85;1.00;;;14.00;86.00;;;;;;5045870;28;20025;-68
2022/10/08 11:31:42;;;;;;;4.65;0.98;;;14.30;84.20;;;;;;5047278;28;20453;-67
2022/10/08 11:34:27;;;;;;;2.55;1.02;;;14.60;82.20;;;;;;5044183;28;20028;-69
2022/10/08 11:37:24;;;;;;;1.98;0.60;;;14.80;80.00;;;;;;5044638;28;20406;-68
2022/10/08 11:40:27;;;;;;;4.57;0.98;;;15.00;78.60;;;;;;5043132;28;20388;-67
2022/10/08 11:43:03;;;;;;;3.92;0.98;;;15.40;77.70;;;;;;5043958;28;20171;-69
2022/10/08 11:45:30;;;;;;;4.88;0.60;;;15.60;77.10;;;;;;5039947;28;20321;-68
2022/10/08 11:47:58;;;;;;;4.32;0.80;;;15.80;76.00;;;;;;5046998;28;20033;-68
2022/10/08 11:50:28;;;;;;;2.25;0.60;;;16.00;73.00;;;;;;5040087;28;20433;-68
2022/10/08 11:53:09;;;;;;;1.88;0.57;;;15.90;73.30;;;;;;5042798;28;20384;-67
2022/10/08 11:55:35;;;;;;;3.97;0.60;;;16.00;71.50;;;;;;5039188;28;20104;-67
2022/10/08 11:58:04;;;;;;;1.38;0.50;;;16.30;71.00;;;;;;5033207;28;20037;-67
2022/10/08 12:00:39;;;;;;;3.90;0.70;;;16.30;69.30;;;;;;5038999;28;20068;-68
2022/10/08 12:03:18;;;;;;;3.30;0.80;;;16.70;71.80;;;;;;5039489;28;20417;-68
2022/10/08 12:05:48;;;;;;;2.58;0.70;;;17.00;70.90;;;;;;5040614;28;20036;-68
2022/10/08 12:08:46;;;;;;;4.53;0.80;;;17.40;68.40;;;;;;5041511;28;20053;-68
2022/10/08 12:11:39;;;;;;;3.33;0.65;;;17.50;65.60;;;;;;5039045;28;20040;-69
2022/10/08 12:14:13;;;;;;;6.25;0.70;;;18.00;65.20;;;;;;5044821;28;20037;-69
2022/10/08 12:16:47;;;;;;;3.90;0.70;;;18.00;65.60;;;;;;5041932;28;20069;-69
2022/10/08 12:19:34;;;;;;;4.45;0.70;;;18.00;64.70;;;;;;5044350;28;20047;-69
2022/10/08 12:22:13;;;;;;;5.63;0.82;;;18.00;63.20;;;;;;5042178;28;20033;-69
2022/10/08 12:24:38;;;;;;;3.53;0.90;;;18.00;64.70;;;;;;5036482;28;20342;-68
2022/10/08 12:27:16;;;;;;;3.85;0.75;;;18.00;64.10;;;;;;5032315;28;20040;-68
2022/10/08 12:29:56;;;;;;;3.55;0.50;;;17.70;64.60;;;;;;5045515;28;20048;-68
2022/10/08 12:32:50;;;;;;;3.17;0.75;;;17.00;61.20;;;;;;5042852;28;20033;-69
2022/10/08 12:35:32;;;;;;;5.43;0.57;;;16.80;63.10;;;;;;5033272;28;20048;-69
2022/10/08 12:38:05;;;;;;;3.88;0.80;;;16.00;62.70;;;;;;5045589;28;20041;-68
2022/10/08 12:40:39;;;;;;;4.35;0.82;;;15.40;64.30;;;;;;5036091;28;20041;-68
2022/10/08 12:43:34;;;;;;;5.28;0.88;;;16.00;64.10;;;;;;5034813;28;20045;-70
2022/10/08 12:46:16;;;;;;;2.00;0.68;;;16.50;63.70;;;;;;5044093;28;20047;-69
2022/10/08 12:49:13;;;;;;;3.97;0.70;;;16.90;59.70;;;;;;5043083;28;20033;-68
2022/10/08 12:52:05;;;;;;;5.68;0.73;;;17.60;60.60;;;;;;5028913;28;20033;-68
2022/10/08 12:54:32;;;;;;;3.05;0.80;;;17.60;58.50;;;;;;5040312;28;20464;-68
2022/10/08 12:56:59;;;;;;;3.88;0.95;;;17.90;58.40;;;;;;5044070;28;20100;-69
2022/10/08 12:59:30;;;;;;;2.13;0.55;;;18.50;56.40;;;;;;5037957;28;20021;-68
2022/10/08 13:01:56;;;;;;;5.40;0.88;;;18.50;57.00;;;;;;5045959;28;20037;-68
2022/10/08 13:04:32;;;;;;;5.60;1.00;;;18.80;55.50;;;;;;5044499;28;20029;-70
2022/10/08 13:06:58;;;;;;;7.07;1.08;;;19.10;55.20;;;;;;5041420;28;20041;-68